Time;durP1;ratioP1;P1;durP2;ratioP2;P2;SDS_P1;SDS_P2;PMS_P1;PMS_P2;Temp;Humidity;BMP_temperature;BMP_pressure;BME280_temperature;BME280_humidity;BME280_pressure;Samples;Min_cycle;Max_cycle;Signal;HPM_P1;HPM_P2
2023/06/11 00:01:52;;;;;;;6.70;5.00;;;;;;;16.07;90.03;98810.03;105105;1268;61206;-20
2023/06/11 00:04:24;;;;;;;6.90;5.40;;;;;;;16.14;89.45;98813.13;105175;1268;61257;-20
2023/06/11 00:06:59;;;;;;;10.00;5.70;;;;;;;16.05;89.97;98813.93;104554;1263;72937;-20
2023/06/11 00:09:26;;;;;;;7.40;5.00;;;;;;;15.89;91.40;98814.95;104965;1263;74094;-20
2023/06/11 00:11:53;;;;;;;6.40;5.30;;;;;;;16.27;89.80;98814.26;105214;1263;72706;-21
2023/06/11 00:14:21;;;;;;;7.30;5.80;;;;;;;16.40;88.34;98806.38;104874;1264;61132;-20
2023/06/11 00:16:50;;;;;;;9.60;6.10;;;;;;;16.19;89.60;98806.85;104883;1270;61200;-21
2023/06/11 00:19:19;;;;;;;6.10;4.80;;;;;;;16.04;90.51;98809.37;104860;1264;71920;-21
2023/06/11 00:21:46;;;;;;;6.10;5.00;;;;;;;16.31;89.78;98809.40;105237;1266;74371;-21
2023/06/11 00:24:14;;;;;;;11.00;5.30;;;;;;;16.38;88.48;98809.33;105867;1252;72630;-21
2023/06/11 00:26:41;;;;;;;8.30;5.60;;;;;;;16.27;89.28;98811.43;105611;1256;61176;-21
2023/06/11 00:29:08;;;;;;;8.40;5.40;;;;;;;16.08;90.33;98810.52;105667;1259;61102;-21
2023/06/11 00:31:35;;;;;;;7.70;4.60;;;;;;;15.98;91.71;98813.35;105562;1254;73102;-21
2023/06/11 00:34:03;;;;;;;7.90;5.40;;;;;;;16.27;90.05;98806.02;105568;1253;74306;-21
2023/06/11 00:36:32;;;;;;;6.60;5.70;;;;;;;16.39;88.68;98808.38;105619;1254;73228;-20
2023/06/11 00:38:59;;;;;;;10.50;5.80;;;;;;;16.13;90.11;98806.83;105630;1253;61071;-20
2023/06/11 00:41:29;;;;;;;9.40;6.00;;;;;;;15.98;91.23;98806.15;105723;1251;61146;-21
2023/06/11 00:43:57;;;;;;;7.80;5.50;;;;;;;15.87;92.72;98811.54;105826;1256;72972;-20
2023/06/11 00:46:24;;;;;;;6.80;5.40;;;;;;;16.07;91.95;98808.47;105731;1253;74307;-21
2023/06/11 00:48:51;;;;;;;8.70;6.20;;;;;;;15.96;91.56;98805.95;105923;1253;72490;-20
2023/06/11 00:51:21;;;;;;;11.10;6.20;;;;;;;16.13;91.44;98803.03;105887;1253;61055;-21
2023/06/11 00:53:48;;;;;;;8.10;5.40;;;;;;;15.96;91.58;98800.36;105860;1256;61254;-20
2023/06/11 00:56:17;;;;;;;7.80;5.60;;;;;;;15.75;92.91;98801.95;105915;1254;71729;-20
2023/06/11 00:58:46;;;;;;;6.90;4.80;;;;;;;15.75;93.52;98801.36;105878;1253;74778;-21
2023/06/11 01:01:17;;;;;;;13.80;6.40;;;;;;;15.85;93.03;98803.17;105666;1253;72732;-20
2023/06/11 01:03:44;;;;;;;7.70;5.70;;;;;;;15.81;92.98;98805.63;105755;1253;61120;-21
2023/06/11 01:06:17;;;;;;;9.30;5.40;;;;;;;15.62;94.18;98803.11;105731;1255;61094;-21
2023/06/11 01:08:45;;;;;;;7.60;5.70;;;;;;;15.81;93.45;98802.12;105404;1253;73129;-21
2023/06/11 01:11:21;;;;;;;13.00;6.40;;;;;;;15.96;92.18;98800.73;105639;1257;74457;-21
2023/06/11 01:13:51;;;;;;;11.70;6.20;;;;;;;15.91;91.68;98800.71;105692;1254;71342;-21
2023/06/11 01:16:37;;;;;;;7.20;5.90;;;;;;;15.95;92.05;98805.44;105972;1253;61157;-21
2023/06/11 01:19:11;;;;;;;8.60;5.40;;;;;;;15.77;93.24;98803.13;105700;1258;61217;-21
2023/06/11 01:21:40;;;;;;;;;;;;;;;16.04;91.03;98797.42;105586;1253;73001;-22
2023/06/11 01:24:21;;;;;;;7.80;5.80;;;;;;;15.81;92.18;98798.15;105670;1253;73372;-21
2023/06/11 01:27:04;;;;;;;8.20;6.40;;;;;;;15.53;93.83;98798.45;105720;1253;72722;-21
2023/06/11 01:29:35;;;;;;;8.00;5.10;;;;;;;15.50;94.42;98797.20;105553;1259;61116;-21
2023/06/11 01:32:03;;;;;;;8.20;5.60;;;;;;;15.73;93.25;98796.73;105424;1253;61301;-22
2023/06/11 01:34:31;;;;;;;11.20;5.30;;;;;;;15.89;92.32;98794.33;105555;1253;72787;-22
2023/06/11 01:36:59;;;;;;;9.90;5.90;;;;;;;16.00;91.36;98792.27;105573;1253;74219;-22
2023/06/11 01:39:27;;;;;;;7.60;5.60;;;;;;;15.53;93.69;98796.56;105685;1258;72601;-22
2023/06/11 01:42:01;;;;;;;7.60;5.20;;;;;;;15.55;94.49;98798.93;105664;1254;61042;-22
2023/06/11 01:44:29;;;;;;;13.40;5.80;;;;;;;16.09;91.88;98800.43;105526;1256;61053;-21
2023/06/11 01:46:56;;;;;;;8.00;5.90;;;;;;;15.74;92.15;98798.54;105774;1254;71882;-20
2023/06/11 01:49:25;;;;;;;7.70;5.50;;;;;;;15.61;93.61;98801.23;105536;1253;71775;-22
2023/06/11 01:51:52;;;;;;;4.90;4.10;;;;;;;15.89;93.06;98804.07;105538;1256;72676;-23
2023/06/11 01:54:19;;;;;;;6.20;5.30;;;;;;;16.13;90.53;98800.16;105518;1253;61243;-22
2023/06/11 01:56:45;;;;;;;9.50;5.10;;;;;;;16.11;90.02;98799.48;105593;1251;61155;-22
2023/06/11 01:59:17;;;;;;;9.40;5.30;;;;;;;16.04;90.48;98800.80;105578;1256;73549;-22
2023/06/11 02:01:44;;;;;;;8.20;5.60;;;;;;;15.86;91.35;98804.31;105726;1256;74316;-22
2023/06/11 02:04:11;;;;;;;4.20;3.80;;;;;;;15.54;93.43;98802.77;105631;1254;71537;-22
2023/06/11 02:06:38;;;;;;;7.80;5.40;;;;;;;15.94;91.91;98801.30;105525;1253;61052;-22
2023/06/11 02:09:05;;;;;;;9.60;5.30;;;;;;;16.08;90.43;98802.24;105431;1259;61151;-22
2023/06/11 02:11:32;;;;;;;7.80;5.20;;;;;;;15.86;90.81;98801.39;105617;1253;71982;-23
2023/06/11 02:13:59;;;;;;;10.60;5.40;;;;;;;15.85;91.33;98808.73;105564;1254;74881;-21
2023/06/11 02:16:26;;;;;;;5.00;4.10;;;;;;;15.57;92.53;98807.01;105593;1253;72747;-21
2023/06/11 02:18:53;;;;;;;9.40;4.20;;;;;;;15.86;90.96;98811.77;105454;1253;61116;-22
2023/06/11 02:21:20;;;;;;;8.20;4.80;;;;;;;15.82;90.36;98813.25;105659;1251;61167;-22
2023/06/11 02:23:48;;;;;;;8.60;5.20;;;;;;;15.66;91.10;98810.21;105661;1253;73883;-21
2023/06/11 02:26:15;;;;;;;5.90;4.90;;;;;;;15.38;92.73;98811.88;105383;1258;74342;-22
2023/06/11 02:28:42;;;;;;;4.90;3.70;;;;;;;15.46;93.04;98817.27;105532;1253;72600;-22
2023/06/11 02:31:09;;;;;;;7.00;5.00;;;;;;;15.76;91.12;98817.41;105534;1253;61206;-22
2023/06/11 02:33:37;;;;;;;8.70;4.50;;;;;;;15.89;90.54;98819.81;105575;1256;61775;-22
2023/06/11 02:36:04;;;;;;;6.10;4.60;;;;;;;15.84;90.13;98820.93;105554;1254;73622;-22
2023/06/11 02:38:32;;;;;;;6.80;5.10;;;;;;;15.42;92.04;98823.59;105531;1259;74752;-22
2023/06/11 02:40:59;;;;;;;5.70;4.30;;;;;;;15.30;93.93;98827.92;105318;1252;72630;-22
2023/06/11 02:43:26;;;;;;;5.40;3.90;;;;;;;15.73;91.39;98833.09;105510;1254;61195;-22
2023/06/11 02:45:53;;;;;;;5.70;4.00;;;;;;;15.89;89.94;98833.16;105521;1258;61256;-22
2023/06/11 02:48:20;;;;;;;8.10;4.30;;;;;;;15.86;89.68;98834.48;105583;1253;72758;-22
2023/06/11 02:50:47;;;;;;;6.90;4.40;;;;;;;15.59;90.98;98841.41;105808;1256;74733;-23
2023/06/11 02:53:14;;;;;;;4.70;3.40;;;;;;;15.43;91.72;98841.30;105737;1253;71260;-22
2023/06/11 02:55:41;;;;;;;6.50;4.20;;;;;;;15.48;92.02;98839.37;105781;1253;61055;-22
2023/06/11 02:58:08;;;;;;;8.50;4.50;;;;;;;15.29;93.37;98840.98;105578;1256;61644;-22
2023/06/11 03:00:35;;;;;;;9.40;4.30;;;;;;;15.08;95.11;98843.89;105550;1254;74364;-22
2023/06/11 03:03:02;;;;;;;4.00;3.50;;;;;;;15.06;96.27;98847.89;105503;1256;74364;-22
2023/06/11 03:05:34;;;;;;;4.00;3.30;;;;;;;15.09;96.40;98847.11;105786;1258;71445;-23
2023/06/11 03:08:02;;;;;;;6.20;3.80;;;;;;;15.22;94.72;98845.41;105698;1253;61147;-22
2023/06/11 03:10:29;;;;;;;5.00;3.90;;;;;;;15.08;95.67;98842.52;105676;1254;61162;-22
2023/06/11 03:12:57;;;;;;;7.30;3.80;;;;;;;15.03;96.90;98844.89;105611;1253;73635;-22
2023/06/11 03:15:24;;;;;;;4.10;2.90;;;;;;;14.92;97.29;98848.11;105772;1259;74226;-22
2023/06/11 03:17:51;;;;;;;4.50;3.30;;;;;;;15.20;96.73;98841.97;105782;1253;72693;-22
2023/06/11 03:20:19;;;;;;;6.80;4.00;;;;;;;15.35;95.55;98840.59;105610;1254;61446;-22
2023/06/11 03:22:46;;;;;;;8.60;3.90;;;;;;;15.20;96.18;98841.35;105822;1259;61173;-22
2023/06/11 03:25:14;;;;;;;5.70;2.90;;;;;;;14.79;98.07;98843.89;105625;1253;73740;-22
2023/06/11 03:27:41;;;;;;;4.20;3.10;;;;;;;14.99;98.61;98847.08;105752;1256;74206;-21
2023/06/11 03:30:09;;;;;;;4.10;3.40;;;;;;;15.23;96.85;98846.01;105550;1253;72647;-21
2023/06/11 03:32:40;;;;;;;7.20;3.10;;;;;;;15.19;96.99;98845.70;105525;1258;61205;-21
2023/06/11 03:35:09;;;;;;;5.40;2.70;;;;;;;14.92;98.15;98846.23;105306;1261;61141;-21
2023/06/11 03:37:36;;;;;;;6.30;3.00;;;;;;;14.98;98.35;98850.27;105562;1254;73775;-20
2023/06/11 03:40:05;;;;;;;4.20;3.30;;;;;;;15.13;96.84;98847.84;105581;1259;74116;-21
2023/06/11 03:42:32;;;;;;;5.70;3.50;;;;;;;15.09;97.39;98850.25;105895;1256;72660;-21
2023/06/11 03:44:59;;;;;;;4.70;3.50;;;;;;;15.03;96.90;98849.65;105850;1254;61034;-21
2023/06/11 03:47:26;;;;;;;4.50;3.00;;;;;;;14.72;98.54;98855.16;105482;1255;61091;-21
2023/06/11 03:49:53;;;;;;;4.30;3.20;;;;;;;15.09;97.43;98855.45;105567;1253;73689;-21
2023/06/11 03:52:20;;;;;;;5.40;3.50;;;;;;;15.40;94.85;98852.08;105610;1256;74724;-21
2023/06/11 03:54:47;;;;;;;5.60;4.30;;;;;;;15.13;95.11;98857.65;105584;1253;72653;-21
2023/06/11 03:57:17;;;;;;;4.40;3.10;;;;;;;14.83;96.72;98856.85;105541;1253;61053;-21
2023/06/11 03:59:45;;;;;;;3.60;3.20;;;;;;;15.22;96.32;98857.42;105518;1252;61117;-21
2023/06/11 04:02:12;;;;;;;7.00;3.20;;;;;;;15.30;94.11;98852.27;105556;1253;73798;-21
2023/06/11 04:04:39;;;;;;;6.50;3.20;;;;;;;14.94;95.68;98854.60;105674;1253;74136;-21
2023/06/11 04:07:06;;;;;;;7.60;3.70;;;;;;;14.90;96.48;98854.42;105625;1254;72643;-21
2023/06/11 04:09:33;;;;;;;3.70;2.90;;;;;;;15.07;96.46;98859.90;105504;1253;61058;-21
2023/06/11 04:12:00;;;;;;;6.50;3.90;;;;;;;15.06;95.64;98856.45;105556;1257;61113;-21
2023/06/11 04:14:27;;;;;;;4.10;3.60;;;;;;;15.15;94.72;98859.05;105562;1254;73606;-21
2023/06/11 04:16:54;;;;;;;6.60;3.10;;;;;;;14.77;96.27;98861.02;105576;1256;74475;-22
2023/06/11 04:19:22;;;;;;;4.80;3.40;;;;;;;14.53;98.14;98862.38;105558;1254;72437;-20
2023/06/11 04:21:49;;;;;;;3.80;3.00;;;;;;;14.74;97.08;98860.02;105564;1251;61032;-21
2023/06/11 04:24:16;;;;;;;6.10;4.00;;;;;;;14.96;96.17;98862.63;105622;1259;61237;-21
2023/06/11 04:26:44;;;;;;;8.20;4.20;;;;;;;14.72;97.01;98862.70;105634;1254;73633;-21
2023/06/11 04:29:13;;;;;;;5.60;3.10;;;;;;;14.65;97.77;98867.37;105606;1258;74455;-21
2023/06/11 04:31:41;;;;;;;5.80;3.40;;;;;;;14.62;98.15;98869.98;105530;1253;71717;-21
2023/06/11 04:34:10;;;;;;;7.10;4.10;;;;;;;14.66;97.89;98870.36;105534;1253;61139;-21
2023/06/11 04:36:38;;;;;;;6.20;3.60;;;;;;;14.60;98.83;98873.17;105549;1257;61319;-21
2023/06/11 04:39:07;;;;;;;3.70;3.30;;;;;;;14.58;98.66;98874.04;105573;1254;73867;-21
2023/06/11 04:41:36;;;;;;;4.00;2.80;;;;;;;14.41;99.70;98871.73;105611;1255;73105;-22
2023/06/11 04:44:03;;;;;;;3.80;2.80;;;;;;;14.51;99.57;98871.95;105642;1254;72666;-21
2023/06/11 04:46:34;;;;;;;5.10;2.50;;;;;;;14.60;98.78;98872.27;105577;1254;61159;-21
2023/06/11 04:49:06;;;;;;;3.70;3.00;;;;;;;14.32;99.94;98881.32;105582;1252;61026;-21
2023/06/11 04:51:34;;;;;;;3.60;2.20;;;;;;;14.52;99.99;98891.42;105449;1259;74324;-21
2023/06/11 04:54:07;;;;;;;1.80;1.60;;;;;;;14.16;100.00;98895.70;105574;1259;74589;-20
2023/06/11 04:56:37;;;;;;;7.40;2.40;;;;;;;14.33;100.00;98898.89;105618;1254;72692;-20
2023/06/11 04:59:06;;;;;;;2.10;1.80;;;;;;;14.47;99.98;98897.48;105518;1258;61226;-21
2023/06/11 05:01:33;;;;;;;1.80;1.30;;;;;;;14.21;99.99;98893.73;105518;1253;61096;-20
2023/06/11 05:04:02;;;;;;;1.20;1.00;;;;;;;13.99;100.00;98894.94;105506;1253;73675;-21
2023/06/11 05:06:29;;;;;;;1.40;1.30;;;;;;;14.25;99.96;98894.64;105792;1255;74374;-20
2023/06/11 05:08:57;;;;;;;1.20;1.10;;;;;;;14.08;100.00;98896.91;105580;1253;71169;-21
2023/06/11 05:11:24;;;;;;;1.60;1.40;;;;;;;14.13;99.95;98900.67;105513;1258;61072;-21
2023/06/11 05:13:53;;;;;;;1.10;0.80;;;;;;;13.89;100.00;98902.15;105514;1259;61278;-20
2023/06/11 05:16:20;;;;;;;1.10;1.00;;;;;;;14.27;99.52;98900.20;105547;1253;73791;-19
2023/06/11 05:18:48;;;;;;;1.50;1.00;;;;;;;14.18;98.48;98897.63;105554;1256;74942;-20
2023/06/11 05:21:15;;;;;;;1.20;1.00;;;;;;;14.11;99.36;98905.93;105560;1254;72358;-20
2023/06/11 05:23:43;;;;;;;2.40;1.30;;;;;;;13.97;100.00;98915.38;105487;1254;61756;-20
2023/06/11 05:26:13;;;;;;;1.30;1.20;;;;;;;13.85;100.00;98913.02;105690;1259;61163;-19
2023/06/11 05:28:44;;;;;;;1.40;1.20;;;;;;;14.13;99.87;98917.09;105570;1256;72517;-19
2023/06/11 05:31:12;;;;;;;1.70;1.40;;;;;;;13.95;99.78;98918.69;105531;1255;74180;-19
2023/06/11 05:33:45;;;;;;;;;;;;;;;13.86;99.97;98914.35;105654;1256;73156;-20
2023/06/11 05:36:13;;;;;;;2.10;1.50;;;;;;;13.87;99.91;98920.09;105726;1257;61151;-20
2023/06/11 05:38:40;;;;;;;2.20;1.70;;;;;;;13.69;100.00;98923.40;105604;1255;61195;-19
2023/06/11 05:41:07;;;;;;;1.60;1.50;;;;;;;13.55;100.00;98931.20;105761;1255;73738;-19
2023/06/11 05:43:35;;;;;;;3.60;1.90;;;;;;;13.39;100.00;98936.14;105682;1258;74150;-19
2023/06/11 05:46:02;;;;;;;3.10;2.20;;;;;;;13.73;100.00;98932.49;105549;1256;72571;-19
2023/06/11 05:48:31;;;;;;;2.70;2.20;;;;;;;13.87;99.99;98929.75;105527;1254;61074;-19
2023/06/11 05:50:58;;;;;;;2.20;2.00;;;;;;;13.68;100.00;98931.39;105630;1257;61139;-20
2023/06/11 05:53:25;;;;;;;2.10;1.90;;;;;;;13.52;100.00;98934.14;105445;1253;73830;-19
2023/06/11 05:55:52;;;;;;;2.10;1.80;;;;;;;13.43;100.00;98937.80;105394;1264;74591;-19
2023/06/11 05:58:22;;;;;;;6.10;2.40;;;;;;;13.72;99.99;98940.40;105517;1252;72695;-19
2023/06/11 06:00:50;;;;;;;5.90;2.30;;;;;;;13.77;99.68;98940.46;105507;1259;61032;-20
2023/06/11 06:03:17;;;;;;;2.60;1.90;;;;;;;13.32;99.90;98936.31;105517;1254;61279;-20
2023/06/11 06:05:45;;;;;;;3.80;2.80;;;;;;;13.27;100.00;98942.04;105495;1259;73532;-20
2023/06/11 06:08:12;;;;;;;2.60;2.20;;;;;;;13.34;100.00;98944.83;105530;1256;74178;-20
2023/06/11 06:10:40;;;;;;;2.60;2.20;;;;;;;13.26;99.93;98938.14;105579;1253;72694;-20
2023/06/11 06:13:07;;;;;;;3.00;2.00;;;;;;;13.36;99.20;98944.11;105522;1256;61159;-20
2023/06/11 06:15:35;;;;;;;3.20;2.20;;;;;;;13.33;99.91;98947.91;105635;1255;61165;-21
2023/06/11 06:18:03;;;;;;;2.30;1.90;;;;;;;13.55;97.88;98944.79;105581;1256;74461;-20
2023/06/11 06:20:36;;;;;;;5.40;2.30;;;;;;;13.41;97.77;98945.45;105405;1262;74724;-20
2023/06/11 06:23:04;;;;;;;6.60;2.80;;;;;;;13.52;98.21;98946.45;105625;1256;72649;-20
2023/06/11 06:25:33;;;;;;;2.20;2.00;;;;;;;13.36;99.33;98949.08;105512;1253;62502;-20
2023/06/11 06:28:00;;;;;;;2.90;2.10;;;;;;;13.59;97.42;98946.23;105475;1259;61247;-21
2023/06/11 06:30:28;;;;;;;2.90;2.60;;;;;;;13.19;97.32;98941.71;105532;1258;73628;-21
2023/06/11 06:32:56;;;;;;;4.10;2.50;;;;;;;13.07;97.99;98955.25;105683;1259;74181;-21
2023/06/11 06:35:26;;;;;;;3.60;2.30;;;;;;;12.92;98.84;98959.91;105325;1256;71850;-20
2023/06/11 06:37:53;;;;;;;3.50;2.60;;;;;;;12.84;99.77;98961.68;105662;1257;61890;-20
2023/06/11 06:40:20;;;;;;;3.70;2.30;;;;;;;13.05;98.72;98964.93;105563;1263;61136;-21
2023/06/11 06:42:47;;;;;;;4.70;2.70;;;;;;;13.00;97.32;98964.46;105553;1254;73818;-21
2023/06/11 06:45:16;;;;;;;2.50;2.10;;;;;;;13.02;96.76;98965.82;105555;1255;74205;-21
2023/06/11 06:47:43;;;;;;;7.10;2.50;;;;;;;12.86;97.90;98968.85;105553;1256;72620;-21
2023/06/11 06:54:13;;;;;;;4.30;2.70;;;;;;;12.83;97.28;98973.78;105658;1258;61916;-21
2023/06/11 06:56:40;;;;;;;13.00;3.10;;;;;;;12.71;97.53;98975.91;105750;1266;75110;-20
2023/06/11 06:59:08;;;;;;;4.40;3.10;;;;;;;12.44;98.33;98971.73;105862;1257;75837;-21
2023/06/11 07:01:37;;;;;;;5.70;3.20;;;;;;;12.70;97.74;98980.58;105851;1256;73136;-21
2023/06/11 07:04:06;;;;;;;4.60;2.90;;;;;;;12.66;96.54;98984.54;105569;1259;61081;-21
2023/06/11 07:10:17;;;;;;;5.40;2.80;;;;;;;12.56;96.80;98991.40;105848;1257;75427;-21
2023/06/11 07:12:44;;;;;;;4.50;3.30;;;;;;;12.70;95.48;98994.52;105483;1260;74826;-21
2023/06/11 07:15:12;;;;;;;5.90;3.50;;;;;;;12.65;94.54;98988.29;105640;1256;74088;-21
2023/06/11 07:17:40;;;;;;;4.90;2.70;;;;;;;12.46;95.86;98993.11;105731;1257;61641;-22
2023/06/11 07:20:09;;;;;;;5.70;2.40;;;;;;;12.48;96.23;98990.50;105769;1266;61984;-22
2023/06/11 07:22:38;;;;;;;4.10;2.50;;;;;;;12.71;94.47;98991.94;105498;1260;74331;-22
2023/06/11 07:25:06;;;;;;;4.90;3.20;;;;;;;12.67;93.94;98996.38;105569;1257;76089;-22
2023/06/11 07:27:35;;;;;;;3.20;2.90;;;;;;;12.49;94.51;98998.25;105329;1265;74445;-22
2023/06/11 07:30:03;;;;;;;4.00;2.20;;;;;;;12.48;95.47;98996.40;105522;1256;63504;-22
2023/06/11 07:32:32;;;;;;;3.40;2.40;;;;;;;12.43;95.29;98994.16;105595;1268;62017;-23
2023/06/11 07:35:00;;;;;;;6.40;2.70;;;;;;;12.69;94.20;98997.69;105507;1259;75414;-22
2023/06/11 07:37:27;;;;;;;6.00;2.40;;;;;;;12.55;94.39;99001.05;105588;1258;76347;-22
2023/06/11 07:39:55;;;;;;;4.40;2.40;;;;;;;12.31;95.42;99002.14;105626;1258;74240;-23
2023/06/11 07:42:22;;;;;;;3.50;2.20;;;;;;;12.44;95.38;99003.56;105515;1259;63711;-22
2023/06/11 07:44:50;;;;;;;3.10;2.00;;;;;;;12.59;93.59;99000.23;105580;1265;61931;-23
2023/06/11 07:47:18;;;;;;;3.60;2.20;;;;;;;12.74;92.61;99001.94;105573;1256;75261;-23
2023/06/11 07:49:45;;;;;;;2.60;1.70;;;;;;;12.38;93.95;99001.00;105611;1254;75843;-23
2023/06/11 07:52:13;;;;;;;1.90;1.40;;;;;;;12.38;94.26;99005.21;105494;1256;74121;-22
2023/06/11 07:54:41;;;;;;;2.40;1.80;;;;;;;12.52;93.90;99006.91;105578;1258;61685;-22
2023/06/11 07:57:08;;;;;;;2.40;1.50;;;;;;;12.71;92.65;99007.80;105629;1256;61217;-22
2023/06/11 07:59:38;;;;;;;2.00;1.70;;;;;;;12.35;93.73;99013.29;105605;1256;75499;-23
2023/06/11 08:02:06;;;;;;;1.80;1.30;;;;;;;12.04;94.61;99017.35;105665;1258;75918;-22
2023/06/11 08:04:33;;;;;;;1.50;1.30;;;;;;;12.20;94.93;99021.19;105722;1258;74353;-22
2023/06/11 08:07:01;;;;;;;2.20;1.50;;;;;;;12.35;94.22;99024.73;105883;1252;61948;-22
2023/06/11 08:09:28;;;;;;;2.30;1.60;;;;;;;12.30;93.99;99026.08;105939;1256;61999;-22
2023/06/11 08:11:57;;;;;;;2.40;1.50;;;;;;;12.15;94.58;99029.27;105890;1257;74625;-24
2023/06/11 08:14:26;;;;;;;2.20;1.80;;;;;;;12.07;95.75;99035.41;105915;1256;75627;-22
2023/06/11 08:16:53;;;;;;;3.10;1.40;;;;;;;12.15;95.38;99037.10;105864;1256;74340;-22
2023/06/11 08:19:22;;;;;;;1.70;1.40;;;;;;;12.33;95.54;99040.27;105900;1256;62029;-22
2023/06/11 08:21:49;;;;;;;2.50;1.80;;;;;;;12.23;95.10;99035.02;105613;1258;61708;-22
2023/06/11 08:24:18;;;;;;;4.40;1.10;;;;;;;12.00;96.89;99039.88;105580;1255;75250;-21
2023/06/11 08:26:45;;;;;;;1.90;1.30;;;;;;;12.41;96.80;99042.13;105650;1256;75647;-21
2023/06/11 08:29:13;;;;;;;2.10;1.60;;;;;;;12.67;94.86;99044.58;105579;1254;74331;-21
2023/06/11 08:31:40;;;;;;;4.20;1.40;;;;;;;12.41;96.21;99041.64;105730;1252;61956;-21
2023/06/11 08:34:09;;;;;;;2.20;1.10;;;;;;;12.27;97.72;99051.55;105636;1258;62515;-21
2023/06/11 08:36:37;;;;;;;1.20;1.10;;;;;;;12.44;96.86;99050.98;105520;1259;74552;-21
2023/06/11 08:39:05;;;;;;;3.40;1.40;;;;;;;12.42;95.37;99046.80;105564;1251;75961;-21
2023/06/11 08:41:32;;;;;;;3.50;1.60;;;;;;;12.56;94.39;99046.77;105625;1254;74200;-21
2023/06/11 08:43:59;;;;;;;2.00;1.50;;;;;;;12.20;95.15;99047.27;105616;1256;61768;-23
2023/06/11 08:46:26;;;;;;;1.60;1.30;;;;;;;11.83;97.10;99045.97;105556;1256;61725;-21
2023/06/11 08:49:00;;;;;;;2.10;1.50;;;;;;;12.16;96.43;99044.05;105485;1254;75261;-21
2023/06/11 08:51:28;;;;;;;1.40;1.30;;;;;;;12.24;94.90;99040.52;105275;1257;75801;-21
2023/06/11 08:53:55;;;;;;;2.40;1.60;;;;;;;12.14;94.90;99040.38;105480;1260;74411;-21
2023/06/11 08:56:23;;;;;;;2.00;1.60;;;;;;;12.20;96.29;99049.43;105634;1260;61142;-21
2023/06/11 08:58:50;;;;;;;2.70;1.70;;;;;;;12.76;93.54;99052.10;105727;1259;61839;-21
2023/06/11 09:01:20;;;;;;;2.70;2.10;;;;;;;12.73;91.71;99046.84;105625;1257;74158;-21
2023/06/11 09:03:48;;;;;;;2.70;1.80;;;;;;;12.74;91.50;99050.77;105489;1254;73908;-21
2023/06/11 09:06:15;;;;;;;2.70;1.60;;;;;;;12.70;92.65;99052.34;105595;1256;74192;-21
2023/06/11 09:08:43;;;;;;;1.50;1.20;;;;;;;12.66;92.98;99050.23;105664;1254;63490;-20
2023/06/11 09:11:10;;;;;;;2.90;1.70;;;;;;;12.92;91.93;99046.66;105735;1257;61785;-21
2023/06/11 09:13:39;;;;;;;1.90;1.70;;;;;;;13.01;89.93;99048.31;105606;1258;75198;-21
2023/06/11 09:16:07;;;;;;;2.80;2.40;;;;;;;13.01;89.37;99050.02;105355;1254;75882;-21
2023/06/11 09:18:34;;;;;;;5.40;2.60;;;;;;;12.72;90.22;99048.66;105604;1257;74415;-21
2023/06/11 09:21:02;;;;;;;1.80;1.40;;;;;;;12.36;91.67;99048.70;105646;1254;61925;-21
2023/06/11 09:23:34;;;;;;;3.90;1.60;;;;;;;12.72;90.97;99052.44;105711;1254;62098;-21
2023/06/11 09:26:01;;;;;;;3.50;1.90;;;;;;;12.97;88.87;99050.56;105545;1257;74480;-23
2023/06/11 09:28:33;;;;;;;4.50;2.90;;;;;;;12.82;88.93;99051.06;105356;1255;73598;-22
2023/06/11 09:31:01;;;;;;;6.00;3.70;;;;;;;12.44;90.41;99049.00;105331;1254;74576;-22
2023/06/11 09:33:30;;;;;;;7.00;3.80;;;;;;;12.47;91.13;99051.75;105580;1255;62219;-22
2023/06/11 09:35:58;;;;;;;11.50;4.60;;;;;;;12.64;90.83;99056.69;105636;1259;61764;-22
2023/06/11 09:38:25;;;;;;;3.80;2.50;;;;;;;12.53;90.20;99050.67;105578;1260;75468;-22
2023/06/11 09:40:56;;;;;;;4.90;3.30;;;;;;;12.80;89.42;99052.23;105746;1254;76138;-22
2023/06/11 09:43:24;;;;;;;4.40;3.40;;;;;;;12.77;89.57;99048.19;105620;1253;74490;-22
2023/06/11 09:45:52;;;;;;;3.10;2.40;;;;;;;12.51;91.02;99054.17;105892;1255;62726;-23
2023/06/11 09:48:23;;;;;;;13.10;5.60;;;;;;;12.86;90.60;99056.59;105686;1254;61618;-23
2023/06/11 09:50:53;;;;;;;24.70;8.60;;;;;;;12.69;89.90;99052.40;105575;1260;75741;-22
2023/06/11 09:53:22;;;;;;;7.70;3.60;;;;;;;12.60;90.60;99061.73;105420;1260;76267;-22
2023/06/11 09:55:50;;;;;;;7.40;2.00;;;;;;;12.36;92.18;99066.10;105620;1257;74369;-22
2023/06/11 09:58:37;;;;;;;4.00;2.00;;;;;;;12.52;91.12;99058.91;105687;1254;61114;-22
2023/06/11 10:01:04;;;;;;;3.60;2.10;;;;;;;12.39;91.08;99053.45;105603;1258;61917;-22
2023/06/11 10:03:34;;;;;;;2.90;2.40;;;;;;;12.20;91.54;99053.21;105547;1257;75537;-22
2023/06/11 10:06:05;;;;;;;5.50;2.00;;;;;;;12.02;92.43;99059.33;105804;1254;75749;-22
2023/06/11 10:08:33;;;;;;;2.90;1.90;;;;;;;12.14;92.67;99062.82;105369;1253;74292;-22
2023/06/11 10:11:03;;;;;;;4.10;2.20;;;;;;;12.35;90.51;99052.46;105491;1256;62271;-23
2023/06/11 10:13:34;;;;;;;2.60;2.10;;;;;;;12.26;90.04;99061.23;105432;1261;61826;-22
2023/06/11 10:16:03;;;;;;;5.20;2.20;;;;;;;12.12;90.49;99060.58;105451;1255;74844;-23
2023/06/11 10:18:31;;;;;;;2.30;2.00;;;;;;;12.03;91.02;99053.45;105326;1256;74950;-22
2023/06/11 10:21:03;;;;;;;5.60;1.90;;;;;;;12.15;90.60;99059.94;103604;1261;2751386;-22
2023/06/11 10:23:39;;;;;;;9.00;2.10;;;;;;;12.20;89.59;99057.40;105321;1255;62024;-23
2023/06/11 10:26:07;;;;;;;2.40;1.70;;;;;;;12.28;88.71;99065.41;105523;1259;61265;-22
2023/06/11 10:28:41;;;;;;;3.10;1.60;;;;;;;12.01;88.85;99062.52;105725;1269;73314;-23
2023/06/11 10:31:09;;;;;;;3.50;2.50;;;;;;;12.29;88.76;99076.86;105734;1257;75948;-22
2023/06/11 10:33:37;;;;;;;3.80;2.60;;;;;;;12.57;87.10;99072.95;105912;1254;74058;-23
2023/06/11 10:36:06;;;;;;;3.60;2.40;;;;;;;12.54;86.71;99075.16;105433;1254;61171;-23
2023/06/11 10:38:38;;;;;;;7.10;3.20;;;;;;;12.44;85.93;99074.65;105738;1256;61748;-22
2023/06/11 10:41:05;;;;;;;2.70;2.10;;;;;;;12.48;86.66;99081.41;105423;1261;75100;-22
2023/06/11 10:43:35;;;;;;;3.50;2.10;;;;;;;12.45;85.25;99080.11;105708;1256;76171;-23
2023/06/11 10:46:03;;;;;;;3.80;1.60;;;;;;;12.53;84.76;99080.45;105203;1260;74173;-22
2023/06/11 10:48:32;;;;;;;2.80;2.10;;;;;;;12.67;83.81;99081.66;105615;1261;62052;-23
2023/06/11 10:51:03;;;;;;;1.70;1.50;;;;;;;12.30;84.53;99081.40;105893;1256;61170;-23
2023/06/11 10:53:38;;;;;;;5.70;1.40;;;;;;;12.35;84.58;99078.69;105595;1254;75497;-23
2023/06/11 10:56:06;;;;;;;2.80;1.20;;;;;;;12.18;85.22;99081.30;105649;1255;74815;-23
2023/06/11 10:58:33;;;;;;;3.10;1.80;;;;;;;12.32;84.36;99090.52;105708;1254;72343;-24
2023/06/11 11:01:03;;;;;;;3.80;1.80;;;;;;;12.30;83.90;99085.06;105709;1257;61115;-23
2023/06/11 11:03:31;;;;;;;2.00;1.40;;;;;;;12.26;84.18;99088.43;105631;1254;61116;-23
2023/06/11 11:05:58;;;;;;;4.10;2.30;;;;;;;12.32;84.86;99091.85;105608;1257;75333;-23
2023/06/11 11:08:26;;;;;;;5.70;1.70;;;;;;;12.18;84.82;99086.09;105810;1256;75952;-23
2023/06/11 11:10:59;;;;;;;2.20;1.60;;;;;;;12.26;83.67;99090.25;105656;1254;74573;-22
2023/06/11 11:13:30;;;;;;;5.40;1.70;;;;;;;12.22;83.84;99088.72;105519;1253;62236;-22
2023/06/11 11:15:58;;;;;;;3.80;1.80;;;;;;;12.32;82.58;99087.86;105458;1260;61687;-22
2023/06/11 11:18:27;;;;;;;2.40;1.70;;;;;;;12.35;82.13;99089.35;105633;1252;75228;-22
2023/06/11 11:20:54;;;;;;;1.60;1.50;;;;;;;12.00;83.25;99074.97;105915;1258;75909;-21
2023/06/11 11:23:25;;;;;;;2.40;1.80;;;;;;;12.28;82.62;99085.59;105912;1256;74195;-21
2023/06/11 11:25:52;;;;;;;4.90;1.90;;;;;;;12.51;81.19;99090.19;105893;1253;63073;-22
2023/06/11 11:28:20;;;;;;;4.40;1.70;;;;;;;12.58;81.35;99089.92;105887;1255;61968;-22
2023/06/11 11:30:48;;;;;;;4.30;2.50;;;;;;;12.37;82.49;99088.15;105775;1256;75692;-22
2023/06/11 11:33:16;;;;;;;5.00;1.80;;;;;;;12.35;83.04;99087.83;105593;1254;76241;-22
2023/06/11 11:35:53;;;;;;;4.30;1.90;;;;;;;12.33;83.86;99088.29;105618;1254;74251;-22
2023/06/11 11:38:24;;;;;;;3.90;2.10;;;;;;;12.48;82.11;99087.48;105444;1254;61164;-22